Cleveland, Ohio
Traffic Map
Current Weather Conditions
Cleveland, Ohio
Clear
Clear
68°
Feels Like: 68°
Wind Chill: 68° Ceiling: Unl
Heat Index: 68° Visibility: 10mi
Dew Point: 52° Wind: 7mph
Humidity: 56% Direction: 340° (NNW)
Pressure: 30.07in Gusts: 0mph
Raw Report DataKBKL 250253Z 34006KT 10SM CLR 20/11 A3007 RMK AO2 SLP179 T02000111 51017 $
Traffic Incident Summary
Active as of:
Severity:
Category:
InformationThere was an issue retrieving the traffic information for this location. Please try a different location or try again shortly.
Advertisements
Track Severe Weather on mobile